PRIVATE WETTERSTATION BILLIGHEIM-ALLFELD                       ZURCK
Wetterdaten: Montag, 23.10.2017
Datum Zeit Temp. A. Temp. A. min Temp. A. max Feuchte A. Luftdruck Regen Wind Richtung Richtung Sonnenschein ET Solar Taupunkt Windchill Windben Empfang
23.10.2017 00:00 7,3 C 7,3 C 7,4 C 90 % 1017,6 hPa 0,0 l/m 4,8 km/h (1 Bft) W-SW 247 0 min 0,000 mm 0 W/m 5,8 C 7,3 C 16,1 km/h (3 Bft) 100 %
23.10.2017 00:10 7,3 C 7,3 C 7,3 C 90 % 1017,6 hPa 0,0 l/m 1,6 km/h (1 Bft) W-SW 247 0 min 0,000 mm 0 W/m 5,8 C 7,3 C 9,7 km/h (2 Bft) 100 %
23.10.2017 00:20 7,3 C 7,3 C 7,3 C 90 % 1017,7 hPa 0,0 l/m 4,8 km/h (1 Bft) W-SW 247 0 min 0,000 mm 0 W/m 5,8 C 7,3 C 16,1 km/h (3 Bft) 100 %
23.10.2017 00:30 7,2 C 7,2 C 7,3 C 90 % 1017,7 hPa 0,0 l/m 1,6 km/h (1 Bft) W-SW 247 0 min 0,000 mm 0 W/m 5,7 C 7,2 C 16,1 km/h (3 Bft) 100 %
23.10.2017 00:40 7,1 C 7,1 C 7,2 C 90 % 1017,7 hPa 0,0 l/m 4,8 km/h (1 Bft) W-SW 247 0 min 0,000 mm 0 W/m 5,6 C 7,1 C 16,1 km/h (3 Bft) 100 %
23.10.2017 00:50 7,0 C 7,0 C 7,1 C 90 % 1017,7 hPa 0,0 l/m 3,2 km/h (1 Bft) W-SW 247 0 min 0,000 mm 0 W/m 5,5 C 7,0 C 16,1 km/h (3 Bft) 100 %
23.10.2017 01:00 6,9 C 6,9 C 7,0 C 90 % 1017,7 hPa 0,0 l/m 4,8 km/h (1 Bft) W-SW 247 0 min 0,000 mm 0 W/m 5,4 C 6,9 C 16,1 km/h (3 Bft) 100 %
23.10.2017 01:10 6,9 C 6,9 C 6,9 C 90 % 1017,6 hPa 0,0 l/m 6,4 km/h (2 Bft) W-SW 247 0 min 0,000 mm 0 W/m 5,4 C 6,9 C 20,9 km/h (4 Bft) 100 %
23.10.2017 01:20 6,9 C 6,8 C 6,9 C 90 % 1017,7 hPa 0,0 l/m 3,2 km/h (1 Bft) W-SW 247 0 min 0,000 mm 0 W/m 5,4 C 6,9 C 14,5 km/h (3 Bft) 100 %
23.10.2017 01:30 6,8 C 6,8 C 6,9 C 90 % 1017,7 hPa 0,0 l/m 1,6 km/h (1 Bft) W-SW 247 0 min 0,000 mm 0 W/m 5,3 C 6,8 C 12,9 km/h (3 Bft) 100 %
23.10.2017 01:40 6,9 C 6,9 C 6,9 C 90 % 1017,6 hPa 0,0 l/m 1,6 km/h (1 Bft) W 270 0 min 0,000 mm 0 W/m 5,4 C 6,9 C 16,1 km/h (3 Bft) 100 %
23.10.2017 01:50 7,0 C 6,9 C 7,0 C 90 % 1017,6 hPa 0,0 l/m 3,2 km/h (1 Bft) SW 225 0 min 0,000 mm 0 W/m 5,5 C 7,0 C 16,1 km/h (3 Bft) 100 %
23.10.2017 02:00 7,1 C 7,0 C 7,1 C 90 % 1017,6 hPa 0,0 l/m 6,4 km/h (2 Bft) W-SW 247 0 min 0,000 mm 0 W/m 5,6 C 7,1 C 20,9 km/h (4 Bft) 100 %
23.10.2017 02:10 7,1 C 7,1 C 7,1 C 90 % 1017,7 hPa 0,0 l/m 4,8 km/h (1 Bft) SW 225 0 min 0,000 mm 0 W/m 5,6 C 7,1 C 19,3 km/h (3 Bft) 100 %
23.10.2017 02:20 7,2 C 7,1 C 7,2 C 90 % 1017,7 hPa 0,0 l/m 4,8 km/h (1 Bft) W-SW 247 0 min 0,000 mm 0 W/m 5,7 C 7,2 C 17,7 km/h (3 Bft) 100 %
23.10.2017 02:30 7,2 C 7,1 C 7,2 C 90 % 1017,7 hPa 0,0 l/m 3,2 km/h (1 Bft) W-SW 247 0 min 0,000 mm 0 W/m 5,7 C 7,2 C 12,9 km/h (3 Bft) 100 %
23.10.2017 02:40 7,2 C 7,2 C 7,2 C 90 % 1017,7 hPa 0,0 l/m 4,8 km/h (1 Bft) W-SW 247 0 min 0,000 mm 0 W/m 5,7 C 7,2 C 16,1 km/h (3 Bft) 100 %
23.10.2017 02:50 7,2 C 7,2 C 7,2 C 90 % 1017,7 hPa 0,0 l/m 4,8 km/h (1 Bft) SW 225 0 min 0,000 mm 0 W/m 5,7 C 7,2 C 16,1 km/h (3 Bft) 90 %
23.10.2017 03:00 7,1 C 7,1 C 7,2 C 90 % 1017,7 hPa 0,0 l/m 6,4 km/h (2 Bft) SW 225 0 min 0,000 mm 0 W/m 5,6 C 7,1 C 24,1 km/h (4 Bft) 100 %
23.10.2017 03:10 7,1 C 7,1 C 7,1 C 90 % 1017,8 hPa 0,0 l/m 6,4 km/h (2 Bft) W-SW 247 0 min 0,000 mm 0 W/m 5,6 C 7,1 C 22,5 km/h (4 Bft) 100 %
23.10.2017 03:20 7,1 C 7,1 C 7,1 C 90 % 1017,8 hPa 0,0 l/m 6,4 km/h (2 Bft) W 270 0 min 0,000 mm 0 W/m 5,6 C 7,1 C 17,7 km/h (3 Bft) 100 %
23.10.2017 03:30 7,1 C 7,1 C 7,1 C 90 % 1017,7 hPa 0,0 l/m 6,4 km/h (2 Bft) W-SW 247 0 min 0,000 mm 0 W/m 5,6 C 7,1 C 16,1 km/h (3 Bft) 100 %
23.10.2017 03:40 7,0 C 7,0 C 7,1 C 90 % 1017,8 hPa 0,0 l/m 3,2 km/h (1 Bft) W 270 0 min 0,000 mm 0 W/m 5,5 C 7,0 C 11,3 km/h (2 Bft) 100 %
23.10.2017 03:50 7,0 C 7,0 C 7,1 C 90 % 1017,8 hPa 0,0 l/m 4,8 km/h (1 Bft) W 270 0 min 0,000 mm 0 W/m 5,5 C 7,0 C 16,1 km/h (3 Bft) 100 %
23.10.2017 04:00 7,0 C 7,0 C 7,0 C 90 % 1017,8 hPa 0,0 l/m 4,8 km/h (1 Bft) W 270 0 min 0,000 mm 0 W/m 5,5 C 7,0 C 17,7 km/h (3 Bft) 100 %
23.10.2017 04:10 6,9 C 6,9 C 7,0 C 90 % 1017,7 hPa 0,0 l/m 6,4 km/h (2 Bft) W-SW 247 0 min 0,000 mm 0 W/m 5,4 C 6,9 C 22,5 km/h (4 Bft) 99 %
23.10.2017 04:20 6,9 C 6,9 C 6,9 C 90 % 1017,8 hPa 0,0 l/m 3,2 km/h (1 Bft) W-SW 247 0 min 0,000 mm 0 W/m 5,4 C 6,9 C 9,7 km/h (2 Bft) 100 %
23.10.2017 04:30 6,9 C 6,9 C 6,9 C 90 % 1017,9 hPa 0,0 l/m 4,8 km/h (1 Bft) W 270 0 min 0,000 mm 0 W/m 5,4 C 6,9 C 17,7 km/h (3 Bft) 100 %
23.10.2017 04:40 6,9 C 6,9 C 6,9 C 90 % 1018,1 hPa 0,0 l/m 1,6 km/h (1 Bft) W 270 0 min 0,000 mm 0 W/m 5,4 C 6,9 C 11,3 km/h (2 Bft) 100 %
23.10.2017 04:50 6,9 C 6,8 C 6,9 C 90 % 1018,2 hPa 0,0 l/m 1,6 km/h (1 Bft) W 270 0 min 0,000 mm 0 W/m 5,4 C 6,9 C 11,3 km/h (2 Bft) 100 %
23.10.2017 05:00 6,8 C 6,8 C 6,9 C 90 % 1018,3 hPa 0,0 l/m 4,8 km/h (1 Bft) W-SW 247 0 min 0,000 mm 0 W/m 5,3 C 6,8 C 12,9 km/h (3 Bft) 100 %
23.10.2017 05:10 6,9 C 6,8 C 6,9 C 90 % 1018,4 hPa 0,0 l/m 6,4 km/h (2 Bft) W 270 0 min 0,000 mm 0 W/m 5,4 C 6,9 C 14,5 km/h (3 Bft) 100 %
23.10.2017 05:20 6,9 C 6,9 C 6,9 C 90 % 1018,4 hPa 0,0 l/m 3,2 km/h (1 Bft) W 270 0 min 0,000 mm 0 W/m 5,4 C 6,9 C 14,5 km/h (3 Bft) 100 %
23.10.2017 05:30 6,9 C 6,9 C 6,9 C 90 % 1018,5 hPa 0,0 l/m 1,6 km/h (1 Bft) W 270 0 min 0,000 mm 0 W/m 5,4 C 6,9 C 11,3 km/h (2 Bft) 100 %
23.10.2017 05:40 6,8 C 6,8 C 6,9 C 90 % 1018,5 hPa 0,0 l/m 4,8 km/h (1 Bft) W 270 0 min 0,000 mm 0 W/m 5,3 C 6,8 C 11,3 km/h (2 Bft) 100 %
23.10.2017 05:50 6,8 C 6,8 C 6,8 C 90 % 1018,6 hPa 0,0 l/m 4,8 km/h (1 Bft) W 270 0 min 0,000 mm 0 W/m 5,3 C 6,8 C 12,9 km/h (3 Bft) 99 %
23.10.2017 06:00 6,7 C 6,7 C 6,8 C 90 % 1018,7 hPa 0,0 l/m 4,8 km/h (1 Bft) W 270 0 min 0,000 mm 0 W/m 5,2 C 6,7 C 14,5 km/h (3 Bft) 100 %
23.10.2017 06:10 6,6 C 6,6 C 6,7 C 90 % 1018,7 hPa 0,0 l/m 3,2 km/h (1 Bft) W-SW 247 0 min 0,000 mm 0 W/m 5,1 C 6,6 C 11,3 km/h (2 Bft) 100 %
23.10.2017 06:20 6,5 C 6,4 C 6,6 C 90 % 1018,8 hPa 0,0 l/m 3,2 km/h (1 Bft) W-SW 247 0 min 0,000 mm 0 W/m 5,0 C 6,5 C 14,5 km/h (3 Bft) 100 %
23.10.2017 06:30 6,4 C 6,4 C 6,5 C 90 % 1018,9 hPa 0,0 l/m 0,0 km/h (0 Bft) W 270 0 min 0,000 mm 0 W/m 4,9 C 6,4 C 6,4 km/h (2 Bft) 100 %
23.10.2017 06:40 6,3 C 6,3 C 6,4 C 90 % 1018,9 hPa 0,0 l/m 0,0 km/h (0 Bft) SW 225 0 min 0,000 mm 0 W/m 4,8 C 6,3 C 9,7 km/h (2 Bft) 100 %
23.10.2017 06:50 6,2 C 6,2 C 6,3 C 90 % 1018,8 hPa 0,0 l/m 1,6 km/h (1 Bft) SW 225 0 min 0,000 mm 0 W/m 4,7 C 6,2 C 8,0 km/h (2 Bft) 99 %
23.10.2017 07:00 6,1 C 6,1 C 6,2 C 90 % 1018,9 hPa 0,0 l/m 0,0 km/h (0 Bft) W 270 0 min 0,000 mm 0 W/m 4,6 C 6,1 C 6,4 km/h (2 Bft) 100 %
23.10.2017 07:10 6,2 C 6,1 C 6,2 C 90 % 1018,9 hPa 0,0 l/m 3,2 km/h (1 Bft) S-SW 202 0 min 0,000 mm 0 W/m 4,7 C 6,2 C 9,7 km/h (2 Bft) 100 %
23.10.2017 07:20 6,2 C 6,2 C 6,3 C 90 % 1018,8 hPa 0,0 l/m 3,2 km/h (1 Bft) SW 225 0 min 0,000 mm 0 W/m 4,7 C 6,2 C 11,3 km/h (2 Bft) 100 %
23.10.2017 07:30 6,2 C 6,2 C 6,3 C 90 % 1019,0 hPa 0,0 l/m 3,2 km/h (1 Bft) W-SW 247 0 min 0,000 mm 0 W/m 4,7 C 6,2 C 16,1 km/h (3 Bft) 84 %
23.10.2017 07:40 6,3 C 6,2 C 6,3 C 90 % 1018,9 hPa 0,0 l/m 3,2 km/h (1 Bft) W-SW 247 0 min 0,000 mm 0 W/m 4,8 C 6,3 C 9,7 km/h (2 Bft) 100 %
23.10.2017 07:50 6,3 C 6,2 C 6,3 C 90 % 1018,9 hPa 0,0 l/m 1,6 km/h (1 Bft) SW 225 0 min 0,000 mm 0 W/m 4,8 C 6,3 C 14,5 km/h (3 Bft) 100 %
23.10.2017 08:00 6,3 C 6,3 C 6,3 C 90 % 1019,0 hPa 0,0 l/m 3,2 km/h (1 Bft) W-SW 247 0 min 0,000 mm 0 W/m 4,8 C 6,3 C 12,9 km/h (3 Bft) 100 %
23.10.2017 08:10 6,4 C 6,3 C 6,4 C 90 % 1019,1 hPa 0,0 l/m 3,2 km/h (1 Bft) W-SW 247 0 min 0,000 mm 5 W/m 4,9 C 6,4 C 14,5 km/h (3 Bft) 100 %
23.10.2017 08:20 6,4 C 6,4 C 6,4 C 90 % 1019,2 hPa 0,0 l/m 0,0 km/h (0 Bft) W-SW 247 0 min 0,000 mm 12 W/m 4,9 C 6,4 C 9,7 km/h (2 Bft) 100 %
23.10.2017 08:30 6,5 C 6,4 C 6,5 C 90 % 1019,4 hPa 0,0 l/m 3,2 km/h (1 Bft) SW 225 0 min 0,000 mm 19 W/m 5,0 C 6,5 C 9,7 km/h (2 Bft) 100 %
23.10.2017 08:40 6,6 C 6,5 C 6,6 C 90 % 1019,5 hPa 0,0 l/m 3,2 km/h (1 Bft) SW 225 0 min 0,000 mm 18 W/m 5,1 C 6,6 C 11,3 km/h (2 Bft) 100 %
23.10.2017 08:50 6,8 C 6,7 C 6,8 C 90 % 1019,6 hPa 0,0 l/m 1,6 km/h (1 Bft) SW 225 0 min 0,000 mm 30 W/m 5,3 C 6,8 C 9,7 km/h (2 Bft) 100 %
23.10.2017 09:00 6,9 C 6,8 C 6,9 C 90 % 1019,7 hPa 0,0 l/m 3,2 km/h (1 Bft) SW 225 0 min 0,000 mm 56 W/m 5,4 C 6,9 C 9,7 km/h (2 Bft) 100 %
23.10.2017 09:10 7,1 C 6,9 C 7,1 C 90 % 1019,8 hPa 0,0 l/m 4,8 km/h (1 Bft) SW 225 0 min 0,000 mm 60 W/m 5,6 C 7,1 C 16,1 km/h (3 Bft) 100 %
23.10.2017 09:20 7,3 C 7,1 C 7,3 C 90 % 1019,8 hPa 0,0 l/m 3,2 km/h (1 Bft) W-SW 247 0 min 0,000 mm 79 W/m 5,8 C 7,3 C 12,9 km/h (3 Bft) 100 %
23.10.2017 09:30 7,4 C 7,3 C 7,4 C 90 % 1019,9 hPa 0,0 l/m 3,2 km/h (1 Bft) W 270 0 min 0,000 mm 79 W/m 5,9 C 7,4 C 16,1 km/h (3 Bft) 100 %
23.10.2017 09:40 7,6 C 7,4 C 7,6 C 90 % 1020,0 hPa 0,0 l/m 3,2 km/h (1 Bft) W-SW 247 0 min 0,000 mm 84 W/m 6,1 C 7,6 C 14,5 km/h (3 Bft) 100 %
23.10.2017 09:50 7,7 C 7,6 C 7,7 C 90 % 1020,1 hPa 0,0 l/m 3,2 km/h (1 Bft) W 270 10 min 0,000 mm 153 W/m 6,2 C 7,7 C 11,3 km/h (2 Bft) 89 %
23.10.2017 10:00 8,0 C 7,7 C 8,0 C 90 % 1020,1 hPa 0,0 l/m 4,8 km/h (1 Bft) SW 225 10 min 0,051 mm 239 W/m 6,5 C 8,0 C 17,7 km/h (3 Bft) 100 %
23.10.2017 10:10 8,1 C 8,1 C 8,2 C 90 % 1020,0 hPa 0,0 l/m 6,4 km/h (2 Bft) W-SW 247 10 min 0,000 mm 165 W/m 6,6 C 8,1 C 16,1 km/h (3 Bft) 100 %
23.10.2017 10:20 8,2 C 8,1 C 8,2 C 90 % 1020,1 hPa 0,0 l/m 4,8 km/h (1 Bft) W-SW 247 0 min 0,000 mm 132 W/m 6,7 C 8,2 C 17,7 km/h (3 Bft) 99 %
23.10.2017 10:30 8,2 C 8,2 C 8,2 C 90 % 1020,2 hPa 0,0 l/m 6,4 km/h (2 Bft) W 270 0 min 0,000 mm 141 W/m 6,7 C 8,2 C 20,9 km/h (4 Bft) 100 %
23.10.2017 10:40 8,3 C 8,2 C 8,3 C 90 % 1020,2 hPa 0,0 l/m 8,0 km/h (2 Bft) W-SW 247 0 min 0,000 mm 135 W/m 6,8 C 7,1 C 17,7 km/h (3 Bft) 100 %
23.10.2017 10:50 8,3 C 8,3 C 8,3 C 90 % 1020,3 hPa 0,0 l/m 8,0 km/h (2 Bft) W 270 0 min 0,000 mm 144 W/m 6,8 C 7,1 C 20,9 km/h (4 Bft) 100 %
23.10.2017 11:00 8,4 C 8,3 C 8,4 C 90 % 1020,3 hPa 0,0 l/m 6,4 km/h (2 Bft) W 270 10 min 0,076 mm 169 W/m 6,9 C 8,4 C 17,7 km/h (3 Bft) 100 %
23.10.2017 11:10 8,7 C 8,4 C 8,7 C 90 % 1020,3 hPa 0,0 l/m 6,4 km/h (2 Bft) W-SW 247 10 min 0,000 mm 246 W/m 7,2 C 8,7 C 16,1 km/h (3 Bft) 100 %
23.10.2017 11:20 9,2 C 8,7 C 9,2 C 90 % 1020,3 hPa 0,0 l/m 6,4 km/h (2 Bft) W-SW 247 10 min 0,000 mm 424 W/m 7,6 C 9,2 C 16,1 km/h (3 Bft) 100 %
23.10.2017 11:30 9,5 C 9,2 C 9,5 C 89 % 1020,2 hPa 0,0 l/m 6,4 km/h (2 Bft) W 270 10 min 0,000 mm 366 W/m 7,8 C 9,5 C 14,5 km/h (3 Bft) 100 %
23.10.2017 11:40 9,6 C 9,5 C 9,6 C 88 % 1020,2 hPa 0,0 l/m 4,8 km/h (1 Bft) SW 225 10 min 0,000 mm 237 W/m 7,7 C 9,6 C 16,1 km/h (3 Bft) 100 %
23.10.2017 11:50 9,5 C 9,5 C 9,6 C 89 % 1020,2 hPa 0,0 l/m 4,8 km/h (1 Bft) W-SW 247 10 min 0,000 mm 178 W/m 7,8 C 9,5 C 17,7 km/h (3 Bft) 100 %
23.10.2017 12:00 9,5 C 9,5 C 9,6 C 88 % 1020,4 hPa 0,0 l/m 4,8 km/h (1 Bft) SW 225 0 min 0,102 mm 142 W/m 7,6 C 9,5 C 16,1 km/h (3 Bft) 100 %
23.10.2017 12:10 9,3 C 9,3 C 9,6 C 88 % 1020,4 hPa 0,0 l/m 5,5 km/h (1 Bft) W-SW 250 0 min 0,000 mm 77 W/m 7,4 C 9,3 C 12,9 km/h (3 Bft) 100 %
23.10.2017 12:20 9,4 C 9,3 C 9,4 C 88 % 1020,4 hPa 0,0 l/m 4,0 km/h (1 Bft) W-SW 257 0 min 0,000 mm 146 W/m 7,5 C 9,4 C 16,1 km/h (3 Bft) 100 %
23.10.2017 12:30 9,4 C 9,4 C 9,4 C 88 % 1020,5 hPa 0,0 l/m 3,4 km/h (1 Bft) W 280 0 min 0,000 mm 130 W/m 7,5 C 9,4 C 16,1 km/h (3 Bft) 100 %
23.10.2017 12:40 9,5 C 9,4 C 9,5 C 88 % 1020,6 hPa 0,0 l/m 7,1 km/h (2 Bft) W-NW 285 10 min 0,000 mm 185 W/m 7,6 C 9,0 C 20,9 km/h (4 Bft) 100 %
23.10.2017 12:50 9,7 C 9,5 C 9,7 C 88 % 1020,6 hPa 0,0 l/m 4,0 km/h (1 Bft) W-SW 251 0 min 0,000 mm 149 W/m 7,8 C 9,7 C 14,5 km/h (3 Bft) 100 %
23.10.2017 13:00 9,8 C 9,7 C 9,8 C 87 % 1020,7 hPa 0,0 l/m 6,8 km/h (2 Bft) W-NW 285 10 min 0,076 mm 204 W/m 7,7 C 9,5 C 17,7 km/h (3 Bft) 100 %
23.10.2017 13:10 10,1 C 9,8 C 10,1 C 87 % 1020,6 hPa 0,0 l/m 6,5 km/h (2 Bft) W-NW 296 10 min 0,000 mm 380 W/m 8,0 C 10,1 C 14,5 km/h (3 Bft) 100 %
23.10.2017 13:20 10,3 C 10,1 C 10,4 C 84 % 1020,6 hPa 0,0 l/m 6,7 km/h (2 Bft) W-SW 254 0 min 0,000 mm 47 W/m 7,7 C 10,1 C 17,7 km/h (3 Bft) 100 %
23.10.2017 13:30 10,2 C 10,2 C 10,3 C 84 % 1020,6 hPa 0,0 l/m 10,1 km/h (2 Bft) W-NW 290 10 min 0,000 mm 301 W/m 7,6 C 7,8 C 24,1 km/h (4 Bft) 100 %
23.10.2017 13:40 10,6 C 10,2 C 10,6 C 83 % 1020,6 hPa 0,0 l/m 11,4 km/h (2 Bft) W-NW 290 10 min 0,000 mm 183 W/m 7,8 C 7,5 C 25,7 km/h (4 Bft) 100 %
23.10.2017 13:50 10,7 C 10,6 C 10,7 C 82 % 1020,7 hPa 0,0 l/m 8,3 km/h (2 Bft) NW 318 10 min 0,000 mm 167 W/m 7,8 C 9,4 C 19,3 km/h (3 Bft) 100 %
23.10.2017 14:00 10,8 C 10,7 C 10,8 C 82 % 1020,7 hPa 0,0 l/m 10,6 km/h (2 Bft) W 261 10 min 0,101 mm 206 W/m 7,9 C 8,2 C 27,4 km/h (4 Bft) 100 %
23.10.2017 14:10 10,9 C 10,8 C 10,9 C 83 % 1020,7 hPa 0,0 l/m 8,5 km/h (2 Bft) W 275 0 min 0,000 mm 149 W/m 8,1 C 9,5 C 17,7 km/h (3 Bft) 100 %
23.10.2017 14:20 10,7 C 10,7 C 10,9 C 83 % 1020,7 hPa 0,0 l/m 7,7 km/h (2 Bft) W-SW 258 0 min 0,000 mm 109 W/m 7,9 C 9,8 C 16,1 km/h (3 Bft) 100 %
23.10.2017 14:30 10,5 C 10,5 C 10,7 C 85 % 1020,8 hPa 0,0 l/m 7,3 km/h (2 Bft) W 260 10 min 0,000 mm 174 W/m 8,1 C 9,9 C 17,7 km/h (3 Bft) 100 %
23.10.2017 14:40 10,4 C 10,4 C 10,5 C 84 % 1020,9 hPa 0,0 l/m 8,8 km/h (2 Bft) W-SW 244 10 min 0,000 mm 197 W/m 7,8 C 8,8 C 20,9 km/h (4 Bft) 100 %
23.10.2017 14:50 10,3 C 10,3 C 10,4 C 84 % 1020,8 hPa 0,0 l/m 10,6 km/h (2 Bft) N-NW 337 0 min 0,000 mm 141 W/m 7,7 C 7,6 C 22,5 km/h (4 Bft) 100 %
23.10.2017 15:00 10,7 C 10,3 C 10,7 C 85 % 1020,8 hPa 0,0 l/m 5,5 km/h (1 Bft) W-SW 241 0 min 0,102 mm 123 W/m 8,3 C 10,7 C 17,7 km/h (3 Bft) 100 %
23.10.2017 15:10 10,6 C 10,6 C 10,8 C 84 % 1020,9 hPa 0,0 l/m 9,6 km/h (2 Bft) W 277 10 min 0,000 mm 192 W/m 8,0 C 8,5 C 20,9 km/h (4 Bft) 99 %
23.10.2017 15:20 10,6 C 10,5 C 10,6 C 85 % 1020,8 hPa 0,0 l/m 7,7 km/h (2 Bft) W 271 10 min 0,000 mm 193 W/m 8,2 C 9,7 C 24,1 km/h (4 Bft) 100 %
23.10.2017 15:30 10,8 C 10,6 C 10,8 C 85 % 1020,8 hPa 0,0 l/m 6,0 km/h (2 Bft) W 259 10 min 0,000 mm 223 W/m 8,4 C 10,8 C 17,7 km/h (3 Bft) 100 %
23.10.2017 15:40 11,2 C 10,8 C 11,2 C 83 % 1020,9 hPa 0,0 l/m 7,0 km/h (2 Bft) W-SW 252 0 min 0,000 mm 102 W/m 8,4 C 10,8 C 22,5 km/h (4 Bft) 100 %
23.10.2017 15:50 10,9 C 10,9 C 11,2 C 82 % 1021,0 hPa 0,0 l/m 9,9 km/h (2 Bft) W-NW 295 0 min 0,000 mm 72 W/m 7,9 C 8,6 C 25,7 km/h (4 Bft) 100 %
23.10.2017 16:00 10,8 C 10,8 C 10,9 C 83 % 1020,8 hPa 0,0 l/m 7,2 km/h (2 Bft) W 259 0 min 0,102 mm 125 W/m 8,0 C 10,2 C 22,5 km/h (4 Bft) 100 %
23.10.2017 16:10 10,7 C 10,7 C 10,8 C 84 % 1021,0 hPa 0,0 l/m 6,0 km/h (2 Bft) W 262 0 min 0,000 mm 104 W/m 8,1 C 10,7 C 17,7 km/h (3 Bft) 100 %
23.10.2017 16:20 10,6 C 10,6 C 10,7 C 83 % 1021,2 hPa 0,0 l/m 9,3 km/h (2 Bft) NW 313 0 min 0,000 mm 98 W/m 7,8 C 8,7 C 24,1 km/h (4 Bft) 100 %
23.10.2017 16:30 10,6 C 10,5 C 10,6 C 84 % 1021,2 hPa 0,0 l/m 9,2 km/h (2 Bft) W 273 0 min 0,000 mm 118 W/m 8,0 C 8,7 C 25,7 km/h (4 Bft) 100 %
23.10.2017 16:40 10,6 C 10,5 C 10,6 C 84 % 1021,2 hPa 0,0 l/m 4,3 km/h (1 Bft) W 266 0 min 0,000 mm 95 W/m 8,0 C 10,6 C 14,5 km/h (3 Bft) 100 %
23.10.2017 16:50 10,5 C 10,5 C 10,6 C 85 % 1021,2 hPa 0,0 l/m 3,7 km/h (1 Bft) W-NW 286 0 min 0,000 mm 62 W/m 8,1 C 10,5 C 19,3 km/h (3 Bft) 100 %
23.10.2017 17:00 10,3 C 10,3 C 10,5 C 85 % 1021,3 hPa 0,0 l/m 7,7 km/h (2 Bft) W-SW 256 0 min 0,050 mm 37 W/m 7,9 C 9,4 C 20,9 km/h (4 Bft) 100 %
23.10.2017 17:10 10,2 C 10,2 C 10,3 C 85 % 1021,3 hPa 0,0 l/m 4,6 km/h (1 Bft) W-SW 252 0 min 0,000 mm 35 W/m 7,8 C 10,2 C 16,1 km/h (3 Bft) 99 %
23.10.2017 17:20 10,2 C 10,2 C 10,2 C 85 % 1021,4 hPa 0,0 l/m 4,3 km/h (1 Bft) SW 233 0 min 0,000 mm 32 W/m 7,8 C 10,2 C 16,1 km/h (3 Bft) 100 %
23.10.2017 17:30 10,1 C 10,1 C 10,2 C 86 % 1021,4 hPa 0,0 l/m 3,8 km/h (1 Bft) SW 229 0 min 0,000 mm 19 W/m 7,9 C 10,1 C 14,5 km/h (3 Bft) 100 %
23.10.2017 17:40 10,1 C 10,1 C 10,1 C 87 % 1021,2 hPa 0,0 l/m 6,0 km/h (2 Bft) SW 232 0 min 0,000 mm 18 W/m 8,0 C 10,1 C 16,1 km/h (3 Bft) 100 %
23.10.2017 17:50 10,0 C 10,0 C 10,1 C 87 % 1021,3 hPa 0,0 l/m 7,1 km/h (2 Bft) SW 223 0 min 0,000 mm 18 W/m 7,9 C 9,5 C 16,1 km/h (3 Bft) 100 %
23.10.2017 18:00 9,9 C 9,9 C 10,0 C 87 % 1021,4 hPa 0,0 l/m 2,3 km/h (1 Bft) SW 225 0 min 0,026 mm 9 W/m 7,8 C 9,9 C 11,3 km/h (2 Bft) 100 %
23.10.2017 18:10 9,8 C 9,8 C 9,9 C 88 % 1021,4 hPa 0,0 l/m 4,1 km/h (1 Bft) S-SW 207 0 min 0,000 mm 5 W/m 7,9 C 9,8 C 14,5 km/h (3 Bft) 100 %
23.10.2017 18:20 9,8 C 9,8 C 9,8 C 88 % 1021,5 hPa 0,0 l/m 6,6 km/h (2 Bft) SW 225 0 min 0,000 mm 0 W/m 7,9 C 9,7 C 20,9 km/h (4 Bft) 100 %
23.10.2017 18:30 9,7 C 9,7 C 9,8 C 88 % 1021,7 hPa 0,0 l/m 1,8 km/h (1 Bft) SW 219 0 min 0,000 mm 0 W/m 7,8 C 9,7 C 11,3 km/h (2 Bft) 100 %
23.10.2017 18:40 9,7 C 9,7 C 9,7 C 87 % 1021,9 hPa 0,0 l/m 6,4 km/h (2 Bft) W-SW 238 0 min 0,000 mm 0 W/m 7,6 C 9,7 C 19,3 km/h (3 Bft) 100 %
23.10.2017 18:50 9,7 C 9,7 C 9,7 C 87 % 1021,9 hPa 0,0 l/m 6,1 km/h (2 Bft) SW 227 0 min 0,000 mm 0 W/m 7,6 C 9,7 C 17,7 km/h (3 Bft) 100 %
23.10.2017 19:00 9,6 C 9,6 C 9,7 C 87 % 1022,0 hPa 0,0 l/m 4,7 km/h (1 Bft) S-SW 209 0 min 0,000 mm 0 W/m 7,5 C 9,6 C 9,7 km/h (2 Bft) 100 %
23.10.2017 19:10 9,6 C 9,6 C 9,6 C 87 % 1022,1 hPa 0,0 l/m 5,0 km/h (1 Bft) SW 221 0 min 0,000 mm 0 W/m 7,5 C 9,6 C 12,9 km/h (3 Bft) 100 %
23.10.2017 19:20 9,5 C 9,5 C 9,6 C 88 % 1022,3 hPa 0,0 l/m 1,3 km/h (1 Bft) W-SW 244 0 min 0,000 mm 0 W/m 7,6 C 9,5 C 17,7 km/h (3 Bft) 92 %
23.10.2017 19:30 9,6 C 9,5 C 9,6 C 88 % 1022,2 hPa 0,0 l/m 3,8 km/h (1 Bft) S-SW 211 0 min 0,000 mm 0 W/m 7,7 C 9,6 C 16,1 km/h (3 Bft) 100 %
23.10.2017 19:40 9,5 C 9,5 C 9,6 C 88 % 1022,3 hPa 0,0 l/m 4,3 km/h (1 Bft) SW 224 0 min 0,000 mm 0 W/m 7,6 C 9,5 C 16,1 km/h (3 Bft) 100 %
23.10.2017 19:50 9,5 C 9,5 C 9,5 C 88 % 1022,4 hPa 0,0 l/m 6,5 km/h (2 Bft) S-SW 207 0 min 0,000 mm 0 W/m 7,6 C 9,5 C 19,3 km/h (3 Bft) 100 %
23.10.2017 20:00 9,5 C 9,4 C 9,5 C 88 % 1022,4 hPa 0,0 l/m 7,8 km/h (2 Bft) W-SW 256 0 min 0,000 mm 0 W/m 7,6 C 8,5 C 20,9 km/h (4 Bft) 99 %
23.10.2017 20:10 9,4 C 9,4 C 9,5 C 88 % 1022,5 hPa 0,0 l/m 9,0 km/h (2 Bft) W-SW 246 0 min 0,000 mm 0 W/m 7,5 C 7,6 C 20,9 km/h (4 Bft) 100 %
23.10.2017 20:20 9,4 C 9,4 C 9,4 C 89 % 1022,7 hPa 0,0 l/m 7,0 km/h (2 Bft) W 279 0 min 0,000 mm 0 W/m 7,7 C 9,0 C 22,5 km/h (4 Bft) 100 %
23.10.2017 20:30 9,4 C 9,4 C 9,4 C 89 % 1022,7 hPa 0,0 l/m 10,2 km/h (2 Bft) W-SW 254 0 min 0,000 mm 0 W/m 7,7 C 6,8 C 27,4 km/h (4 Bft) 100 %
23.10.2017 20:40 9,4 C 9,4 C 9,4 C 89 % 1022,6 hPa 0,0 l/m 9,3 km/h (2 Bft) W 275 0 min 0,000 mm 0 W/m 7,7 C 7,4 C 20,9 km/h (4 Bft) 100 %
23.10.2017 20:50 9,4 C 9,4 C 9,4 C 89 % 1022,7 hPa 0,0 l/m 11,0 km/h (2 Bft) W 259 0 min 0,000 mm 0 W/m 7,7 C 6,4 C 25,7 km/h (4 Bft) 100 %
23.10.2017 21:00 9,4 C 9,4 C 9,4 C 89 % 1022,8 hPa 0,0 l/m 10,4 km/h (2 Bft) W 259 0 min 0,025 mm 0 W/m 7,7 C 6,7 C 25,7 km/h (4 Bft) 100 %
23.10.2017 21:10 9,4 C 9,4 C 9,4 C 89 % 1022,8 hPa 0,0 l/m 8,0 km/h (2 Bft) W 270 0 min 0,000 mm 0 W/m 7,7 C 8,2 C 19,3 km/h (3 Bft) 97 %
23.10.2017 21:20 9,4 C 9,4 C 9,4 C 89 % 1023,0 hPa 0,0 l/m 8,0 km/h (2 Bft) W 270 0 min 0,000 mm 0 W/m 7,7 C 8,2 C 20,9 km/h (4 Bft) 98 %
23.10.2017 21:30 9,4 C 9,4 C 9,4 C 90 % 1022,9 hPa 0,0 l/m 8,0 km/h (2 Bft) W-SW 247 0 min 0,000 mm 0 W/m 7,8 C 8,2 C 22,5 km/h (4 Bft) 98 %
23.10.2017 21:40 9,4 C 9,4 C 9,4 C 90 % 1023,1 hPa 0,0 l/m 9,7 km/h (2 Bft) W 270 0 min 0,000 mm 0 W/m 7,8 C 7,1 C 22,5 km/h (4 Bft) 98 %
23.10.2017 21:50 9,4 C 9,4 C 9,4 C 90 % 1023,0 hPa 0,0 l/m 8,0 km/h (2 Bft) W 270 0 min 0,000 mm 0 W/m 7,8 C 8,2 C 22,5 km/h (4 Bft) 97 %
23.10.2017 22:00 9,4 C 9,4 C 9,4 C 90 % 1023,0 hPa 0,0 l/m 8,0 km/h (2 Bft) W 270 0 min 0,025 mm 0 W/m 7,8 C 8,2 C 19,3 km/h (3 Bft) 98 %
23.10.2017 22:10 9,4 C 9,4 C 9,4 C 90 % 1023,1 hPa 0,0 l/m 8,0 km/h (2 Bft) W 270 0 min 0,000 mm 0 W/m 7,8 C 8,2 C 19,3 km/h (3 Bft) 97 %
23.10.2017 22:20 9,4 C 9,4 C 9,4 C 90 % 1023,1 hPa 0,0 l/m 6,4 km/h (2 Bft) W 270 0 min 0,000 mm 0 W/m 7,8 C 9,4 C 17,7 km/h (3 Bft) 98 %
23.10.2017 22:30 9,4 C 9,4 C 9,4 C 90 % 1023,2 hPa 0,0 l/m 9,7 km/h (2 Bft) W 270 0 min 0,000 mm 0 W/m 7,8 C 7,1 C 24,1 km/h (4 Bft) 98 %
23.10.2017 22:40 9,4 C 9,4 C 9,5 C 90 % 1023,4 hPa 0,0 l/m 9,7 km/h (2 Bft) W-NW 292 0 min 0,000 mm 0 W/m 7,8 C 7,1 C 20,9 km/h (4 Bft) 98 %
23.10.2017 22:50 9,4 C 9,4 C 9,5 C 90 % 1023,7 hPa 0,0 l/m 6,4 km/h (2 Bft) W-NW 292 0 min 0,000 mm 0 W/m 7,8 C 9,4 C 16,1 km/h (3 Bft) 98 %
23.10.2017 23:00 9,4 C 9,4 C 9,5 C 90 % 1023,6 hPa 0,0 l/m 4,8 km/h (1 Bft) W-NW 292 0 min 0,000 mm 0 W/m 7,8 C 9,4 C 12,9 km/h (3 Bft) 97 %
23.10.2017 23:10 9,4 C 9,4 C 9,5 C 90 % 1023,6 hPa 0,0 l/m 9,7 km/h (2 Bft) W 270 0 min 0,000 mm 0 W/m 7,8 C 7,1 C 20,9 km/h (4 Bft) 98 %
23.10.2017 23:20 9,4 C 9,4 C 9,4 C 90 % 1023,6 hPa 0,0 l/m 8,0 km/h (2 Bft) W-SW 247 0 min 0,000 mm 0 W/m 7,8 C 8,2 C 19,3 km/h (3 Bft) 97 %
23.10.2017 23:30 9,4 C 9,4 C 9,4 C 90 % 1023,6 hPa 0,0 l/m 8,0 km/h (2 Bft) W-NW 292 0 min 0,000 mm 0 W/m 7,8 C 8,2 C 16,1 km/h (3 Bft) 88 %
23.10.2017 23:40 9,4 C 9,3 C 9,4 C 90 % 1023,7 hPa 0,0 l/m 6,4 km/h (2 Bft) W-NW 292 0 min 0,000 mm 0 W/m 7,8 C 9,4 C 19,3 km/h (3 Bft) 98 %
23.10.2017 23:50 9,3 C 9,3 C 9,4 C 90 % 1023,7 hPa 0,0 l/m 6,4 km/h (2 Bft) W 270 0 min 0,000 mm 0 W/m 7,7 C 9,3 C 17,7 km/h (3 Bft) 98 %
_ Min-Zeit 07:00 07:00 07:00 13:50 00:00 - 06:30 - - - - - 07:00 07:00 06:30 07:30
Minimum _ 6,1 C 6,1 C 6,2 C 82 % 1017,6 hPa - 0,0 km/h (0 Bft) - - - - - 4,6 C 6,1 C 6,4 km/h (2 Bft) 84 %
_ Max-Zeit 15:40 15:50 15:40 00:00 22:50 00:00 13:40 - - 09:50 12:00 11:20 15:40 15:30 14:00 00:00
Maximum _ 11,2 C 10,9 C 11,2 C 90 % 1023,7 hPa 0,0 l/m 11,4 km/h
W-NW (2 Bft)
- - 10 min 0,102 mm 424 W/m 8,4 C 10,8 C 27,4 km/h
W-SW (4 Bft)
100 %
Durchschnitt _ 8,5 C 8,5 C 8,6 C 88 % 1020,2 hPa #0,0 l/m 5,5 km/h (1 Bft) W-SW - #3:30 h #0,736 mm 130 W/m 6,7 C 8,1 C 16,9 km/h (3 Bft) 99 %
PRIVATE WETTERSTATION BILLIGHEIM-ALLFELD - www.neckar-odenwald-wetter.de - Holger Sonntag